NCAR-RAP Real-Time Weather Data

Output produced by METARs form (20 February 2019  18:15 UTC)
found at http://weather.rap.ucar.edu/surface/
 
RJSR 201000Z 22004KT 180V260 8000 -SHRA FEW003 SCT010 BKN015 04/04 Q1012
RJSR 200900Z 14003KT 120V200 2500 R11/1200VP2000U -SHRA BCFG BR FEW001 SCT006 BKN015 03/03 Q1012
RJSR 200841Z VRB02KT 1600 R11/0500V1700U -SHRA BCFG BR FEW001 SCT006 BKN015 03/03 Q1012 RMK 1ST001 4ST006 7CU015 A2988
RJSR 200831Z VRB01KT 1200 R11/0400V0650N -SHRA BCFG BR FEW001 SCT006 BKN015 04/04 Q1011 RMK 1ST001 4ST006 7CU015 A2988
RJSR 200816Z VRB01KT 1200 R11/0400V0600N -SHRA BCFG BR FEW001 BKN006 BKN008 04/04 Q1011 RMK 1ST001 5ST006 7ST008 A2987
RJSR 200800Z VRB01KT 1200 R11/0450V1200U -SHRA BCFG BR FEW001 BKN004 BKN006 03/03 Q1011
RJSR 200730Z 00000KT 1200 R11/0450V1400D -SHRA BCFG BR FEW001 BKN004 BKN006 03/03 Q1011 RMK 1ST001 5ST004 7ST006 A2987
RJSR 200720Z VRB02KT 2000 R11/1200VP2000D -SHRA BCFG BR FEW001 SCT004 BKN010 03/03 Q1011 RMK 1ST001 4ST004 7ST010 A2986
RJSR 200700Z VRB01KT 3000 R11/1800D -SHRA BR FEW001 SCT006 BKN012 04/04 Q1011
RJSR 200600Z VRB01KT 6000 -SHRA FEW003 SCT007 BKN015 03/03 Q1010
RJSR 200500Z 00000KT 8000 FEW003 SCT007 BKN020 04/04 Q1011
RJSR 200400Z VRB02KT 6000 FEW003 SCT010 BKN020 04/04 Q1011
RJSR 200300Z VRB01KT 5000 -SHRA BR FEW002 SCT005 BKN012 03/03 Q1012
RJSR 200200Z VRB02KT 5000 -SHRA BR FEW002 SCT005 BKN015 03/03 Q1013
RJSR 200128Z 19001KT 3000 R11/2000N -SHRA BCFG BR FEW003 SCT010 BKN015 02/02 Q1012 RMK 1ST003 3ST010 5CU015 A2991
RJSR 200100Z VRB02KT 2000 R11/1200VP2000N -SHRA BCFG BR FEW001 SCT002 BKN003 02/02 Q1013
RJSR 200017Z 00000KT 2000 R11/0650V1400U -SHRA BCFG BR FEW001 SCT002 BKN003 02/02 Q1012 RMK 1ST001 3ST002 6ST003 A2991
RJSR 200000Z VRB01KT 1500 R11/0400V0900N -SHRA BCFG BR FEW001 SCT002 BKN003 02/02 Q1012
RJSR 192341Z 00000KT 1000 R11/0325V1100U -SHRA BCFG BR FEW001 BKN002 01/01 Q1013 RMK 1ST001 7ST002 A2991
RJSR 192300Z VRB01KT 0500 R11/0200N FG SCT001 BKN002 01/01 Q1012
RJSR 191000Z VRB02KT 9999 -RA FEW030 BKN040 02/02 Q1015
RJSR 190900Z 15003KT 110V180 9999 -RA FEW020 BKN060 03/M01 Q1016
RJSR 190800Z VRB02KT 9999 FEW020 BKN070 03/M02 Q1017
RJSR 190700Z VRB02KT 9999 FEW030 BKN070 03/M01 Q1018
RJSR 190600Z VRB02KT 9999 FEW030 BKN070 03/M02 Q1018
RJSR 190500Z VRB01KT 9999 FEW030 BKN090 04/M02 Q1018
RJSR 190400Z VRB01KT 9999 FEW030 BKN100 04/M03 Q1020
RJSR 190300Z VRB01KT 9999 FEW030 BKN110 02/M03 Q1021
RJSR 190200Z VRB02KT 9999 FEW010 SCT035 BKN120 01/M03 Q1022
RJSR 190100Z 35002KT 9999 FEW010 SCT035 BKN130 M00/M02 Q1023
RJSR 190000Z 00000KT 9999 FEW010 SCT035 BKN130 M02/M02 Q1025
RJSR 182300Z 23001KT 9999 FEW010 SCT040 BKN130 M03/M03 Q1025
RJSR 181000Z 15003KT 9999 FEW030 M01/M05 Q1025
RJSR 180900Z 16003KT 9999 FEW030 01/M05 Q1024
RJSR 180800Z 25004KT 9999 FEW030 SCT/// 03/M06 Q1024
RJSR 180700Z 27010KT 9999 FEW030 03/M06 Q1024